Time;durP1;ratioP1;P1;durP2;ratioP2;P2;SDS_P1;SDS_P2;PMS_P1;PMS_P2;Temp;Humidity;BMP_temperature;BMP_pressure;BME280_temperature;BME280_humidity;BME280_pressure;Samples;Min_cycle;Max_cycle;Signal;HPM_P1;HPM_P2
2021/12/14 00:01:05;;;;;;;25.43;15.83;;;9.00;99.90;;;;;;5115135;28;20220;-78
2021/12/14 00:03:33;;;;;;;28.63;15.80;;;9.00;99.90;;;;;;5096154;28;20217;-78
2021/12/14 00:05:59;;;;;;;25.73;15.50;;;9.00;99.90;;;;;;5095950;28;20166;-77
2021/12/14 00:08:27;;;;;;;27.27;15.70;;;9.00;99.90;;;;;;5096162;28;20535;-77
2021/12/14 00:13:49;;;;;;;23.37;14.37;;;9.00;99.90;;;;;;5114565;28;20176;-77
2021/12/14 00:16:15;;;;;;;28.07;15.70;;;8.90;99.90;;;;;;5095762;28;20709;-78
2021/12/14 00:18:42;;;;;;;22.87;14.07;;;9.00;99.90;;;;;;5113806;28;20276;-77
2021/12/14 00:21:19;;;;;;;24.53;15.47;;;8.90;99.90;;;;;;5113848;28;20201;-78
2021/12/14 00:24:10;;;;;;;24.17;15.37;;;8.90;99.90;;;;;;5095117;28;20197;-78
2021/12/14 00:26:39;;;;;;;24.77;14.23;;;9.00;99.90;;;;;;5095832;28;20169;-77
2021/12/14 00:29:06;;;;;;;20.77;14.33;;;9.00;99.90;;;;;;5095220;28;20189;-77
2021/12/14 00:31:33;;;;;;;24.57;15.40;;;9.00;99.90;;;;;;5113604;28;20620;-77
2021/12/14 00:34:01;;;;;;;21.70;13.77;;;9.00;99.90;;;;;;5095677;28;20197;-77
2021/12/14 00:36:27;;;;;;;24.57;14.60;;;8.90;99.90;;;;;;5095399;28;20174;-77
2021/12/14 00:38:56;;;;;;;25.80;14.77;;;8.90;99.90;;;;;;5113471;28;20579;-78
2021/12/14 00:41:26;;;;;;;24.07;13.73;;;9.00;99.90;;;;;;5095381;28;20224;-77
2021/12/14 00:43:52;;;;;;;25.60;15.13;;;8.90;99.90;;;;;;5096006;28;20206;-77
2021/12/14 00:46:18;;;;;;;23.23;14.97;;;9.00;99.90;;;;;;5095134;28;20181;-77
2021/12/14 00:48:45;;;;;;;22.27;14.63;;;8.90;99.90;;;;;;5095062;28;20214;-77
2021/12/14 00:51:12;;;;;;;24.60;14.17;;;8.90;99.90;;;;;;5094953;28;20194;-77
2021/12/14 00:53:39;;;;;;;24.20;14.50;;;8.80;99.90;;;;;;5095551;28;20265;-77
2021/12/14 00:56:09;;;;;;;21.23;14.13;;;8.90;99.90;;;;;;5113161;28;20695;-77
2021/12/14 00:58:36;;;;;;;24.80;15.70;;;8.90;99.90;;;;;;5094872;28;20184;-77
2021/12/14 01:01:18;;;;;;;23.10;13.83;;;8.90;99.90;;;;;;5094704;28;20309;-77
2021/12/14 01:03:47;;;;;;;22.07;14.30;;;8.90;99.90;;;;;;5094999;28;20282;-78
2021/12/14 01:06:14;;;;;;;22.60;13.83;;;8.90;99.90;;;;;;5094786;28;20170;-77
2021/12/14 01:08:43;;;;;;;21.10;14.33;;;8.90;99.90;;;;;;5094558;28;20646;-78
2021/12/14 01:11:32;;;;;;;20.97;14.10;;;8.90;99.90;;;;;;5094695;28;20197;-77
2021/12/14 01:14:04;;;;;;;21.80;14.20;;;8.90;99.90;;;;;;5094893;28;20246;-77
2021/12/14 01:16:49;;;;;;;20.77;14.50;;;8.90;99.90;;;;;;5094729;28;20177;-77
2021/12/14 01:19:20;;;;;;;21.33;14.70;;;8.90;99.90;;;;;;5094721;28;20172;-77
2021/12/14 01:27:14;;;;;;;20.90;13.20;;;8.90;99.90;;;;;;5113048;28;20785;-77
2021/12/14 01:29:43;;;;;;;21.77;13.67;;;8.90;99.90;;;;;;5094150;28;20181;-77
2021/12/14 01:32:10;;;;;;;23.17;14.77;;;8.90;99.90;;;;;;5094370;28;20280;-77
2021/12/14 01:34:37;;;;;;;21.50;12.97;;;8.80;99.90;;;;;;5094481;28;20655;-77
2021/12/14 01:37:08;;;;;;;20.73;13.93;;;8.90;99.90;;;;;;5111709;28;20198;-77
2021/12/14 01:42:19;;;;;;;19.83;13.03;;;8.90;99.90;;;;;;5112285;28;20197;-77
2021/12/14 01:44:55;;;;;;;20.97;11.97;;;8.90;99.90;;;;;;5094081;28;20211;-77
2021/12/14 01:47:26;;;;;;;20.53;13.60;;;8.90;99.90;;;;;;5094316;28;20176;-77
2021/12/14 01:49:52;;;;;;;20.80;12.60;;;8.90;99.90;;;;;;5111965;28;20673;-77
2021/12/14 01:52:22;;;;;;;20.67;13.70;;;8.90;99.90;;;;;;5094022;28;20289;-77
2021/12/14 01:54:51;;;;;;;18.07;12.73;;;8.90;99.90;;;;;;5112286;28;20195;-78
2021/12/14 01:57:21;;;;;;;21.43;12.67;;;8.90;99.90;;;;;;5094169;28;20174;-78
2021/12/14 01:59:47;;;;;;;18.97;11.93;;;8.90;99.90;;;;;;5090386;28;20178;-77
2021/12/14 02:02:34;;;;;;;19.43;12.87;;;8.90;99.90;;;;;;5091427;28;20221;-77
2021/12/14 02:05:06;;;;;;;22.23;11.97;;;8.90;99.90;;;;;;5092684;28;20209;-78
2021/12/14 02:07:33;;;;;;;16.63;10.90;;;8.90;99.90;;;;;;5093945;28;20261;-77
2021/12/14 02:10:06;;;;;;;16.97;11.40;;;8.90;99.90;;;;;;5093400;28;20169;-77
2021/12/14 02:12:32;;;;;;;17.23;10.77;;;8.90;99.90;;;;;;5093878;28;20629;-77
2021/12/14 02:15:09;;;;;;;16.77;10.93;;;8.90;99.90;;;;;;5093766;28;20296;-78
2021/12/14 02:17:38;;;;;;;18.50;10.13;;;8.90;99.90;;;;;;5093874;28;20173;-77
2021/12/14 02:20:05;;;;;;;14.33;9.60;;;8.90;99.90;;;;;;5093449;28;20177;-77
2021/12/14 02:22:31;;;;;;;15.57;10.63;;;8.80;99.90;;;;;;5112062;28;20256;-78
2021/12/14 02:24:56;;;;;;;18.17;12.20;;;8.80;99.90;;;;;;5093476;28;20347;-78
2021/12/14 02:27:22;;;;;;;19.53;11.17;;;8.80;99.90;;;;;;5112044;28;20170;-77
2021/12/14 02:29:49;;;;;;;15.53;10.50;;;8.80;99.90;;;;;;5093243;28;20247;-76
2021/12/14 02:32:26;;;;;;;14.37;10.03;;;8.80;99.90;;;;;;5093484;28;20280;-76
2021/12/14 02:35:00;;;;;;;14.63;10.00;;;8.80;99.90;;;;;;5093463;28;20238;-76
2021/12/14 02:37:38;;;;;;;17.00;10.03;;;8.80;99.90;;;;;;5093553;28;20185;-76
2021/12/14 02:40:17;;;;;;;14.57;10.10;;;8.80;99.90;;;;;;5092967;28;20268;-74
2021/12/14 02:42:42;;;;;;;14.53;8.70;;;8.80;99.90;;;;;;5093421;28;20197;-76
2021/12/14 02:45:09;;;;;;;14.70;9.87;;;8.80;99.90;;;;;;5111623;28;20668;-76
2021/12/14 02:47:34;;;;;;;17.57;10.57;;;8.80;99.90;;;;;;5095170;28;20173;-77
2021/12/14 02:50:00;;;;;;;14.07;10.10;;;8.80;99.90;;;;;;5115285;28;20505;-76
2021/12/14 02:52:36;;;;;;;15.20;9.33;;;8.80;99.90;;;;;;5115667;28;20166;-76
2021/12/14 02:55:10;;;;;;;16.03;9.27;;;8.80;99.90;;;;;;5115544;28;20521;-77
2021/12/14 02:57:39;;;;;;;14.43;8.90;;;8.80;99.90;;;;;;5097436;28;20165;-77
2021/12/14 03:00:12;;;;;;;13.88;8.32;;;8.80;99.90;;;;;;5114954;28;20419;-77
2021/12/14 03:02:38;;;;;;;13.30;8.87;;;8.80;99.90;;;;;;5097425;28;20182;-77
2021/12/14 03:05:08;;;;;;;14.33;8.93;;;8.80;99.90;;;;;;5097018;28;20258;-76
2021/12/14 03:07:43;;;;;;;13.90;9.07;;;8.80;99.90;;;;;;5097111;28;20189;-77
2021/12/14 03:13:02;;;;;;;14.23;8.33;;;8.70;99.90;;;;;;5114145;28;20214;-76
2021/12/14 03:15:33;;;;;;;12.60;8.83;;;8.70;99.90;;;;;;5076970;28;20170;-77
2021/12/14 03:18:07;;;;;;;16.17;8.80;;;8.70;99.90;;;;;;5076653;28;20175;-77
2021/12/14 03:20:40;;;;;;;13.73;8.97;;;8.70;99.90;;;;;;5076397;28;20187;-77
2021/12/14 03:23:08;;;;;;;12.93;8.57;;;8.70;99.90;;;;;;5076556;28;20198;-77
2021/12/14 03:25:38;;;;;;;13.20;8.10;;;8.70;99.90;;;;;;5076262;28;20171;-76
2021/12/14 03:28:04;;;;;;;13.67;8.13;;;8.70;99.90;;;;;;5076276;28;20170;-76
2021/12/14 03:30:33;;;;;;;15.53;8.87;;;8.70;99.90;;;;;;5094522;28;20479;-76
2021/12/14 03:33:04;;;;;;;14.33;8.20;;;8.70;99.90;;;;;;5076335;28;20187;-77
2021/12/14 03:35:41;;;;;;;14.90;9.63;;;8.60;99.90;;;;;;5076307;28;20174;-77
2021/12/14 03:38:14;;;;;;;13.80;8.83;;;8.70;99.90;;;;;;5076093;28;20570;-76
2021/12/14 03:40:40;;;;;;;13.83;9.03;;;8.70;99.90;;;;;;5075959;28;20198;-76
2021/12/14 03:43:06;;;;;;;14.13;8.40;;;8.70;99.90;;;;;;5076428;28;20202;-76
2021/12/14 03:45:32;;;;;;;13.80;8.30;;;8.70;99.90;;;;;;5076160;28;20629;-76
2021/12/14 03:48:00;;;;;;;14.73;8.23;;;8.70;99.90;;;;;;5075876;28;20177;-76
2021/12/14 03:50:33;;;;;;;16.17;8.97;;;8.70;99.90;;;;;;5076190;28;20662;-76
2021/12/14 03:52:59;;;;;;;14.60;8.57;;;8.70;99.90;;;;;;5076344;28;20261;-76
2021/12/14 03:55:30;;;;;;;13.37;8.53;;;8.70;99.90;;;;;;5076083;28;20198;-77
2021/12/14 03:57:55;;;;;;;13.13;7.40;;;8.70;99.90;;;;;;5075833;28;20162;-76
2021/12/14 04:00:25;;;;;;;12.47;8.50;;;8.60;99.90;;;;;;5075279;28;20637;-76
2021/12/14 04:02:54;;;;;;;14.67;9.07;;;8.70;99.90;;;;;;5106355;22;20225;-74
2021/12/14 04:05:20;;;;;;;15.13;9.70;;;8.70;99.90;;;;;;5088798;28;20519;-72
2021/12/14 04:07:48;;;;;;;13.90;8.73;;;8.60;99.90;;;;;;5094112;28;20159;-72
2021/12/14 04:10:22;;;;;;;15.20;9.03;;;8.70;99.90;;;;;;5094214;28;20491;-72
2021/12/14 04:12:47;;;;;;;15.17;9.20;;;8.60;99.90;;;;;;5108674;28;20278;-73
2021/12/14 04:15:13;;;;;;;13.40;8.83;;;8.60;99.90;;;;;;5107022;28;20231;-72
2021/12/14 04:17:39;;;;;;;14.37;9.03;;;8.60;99.90;;;;;;5114561;28;20577;-71
2021/12/14 04:20:21;;;;;;;17.37;9.47;;;8.60;99.90;;;;;;5105575;28;20525;-71
2021/12/14 04:22:48;;;;;;;13.27;8.97;;;8.60;99.90;;;;;;5113118;28;20198;-72
2021/12/14 04:25:17;;;;;;;14.33;9.27;;;8.60;99.90;;;;;;5113967;28;20162;-72
2021/12/14 04:27:43;;;;;;;13.47;9.00;;;8.60;99.90;;;;;;5110675;28;20177;-72
2021/12/14 04:30:12;;;;;;;17.27;9.03;;;8.60;99.90;;;;;;5105638;28;20174;-72
2021/12/14 04:32:38;;;;;;;14.70;9.47;;;8.60;99.90;;;;;;5112674;28;20186;-72
2021/12/14 04:35:06;;;;;;;14.67;9.73;;;8.60;99.90;;;;;;5113853;28;20173;-72
2021/12/14 04:37:37;;;;;;;13.50;8.87;;;8.60;99.90;;;;;;5114106;28;20508;-71
2021/12/14 04:53:50;;;;;;;14.20;9.30;;;8.60;99.90;;;;;;5113864;28;20183;-71
2021/12/14 04:56:21;;;;;;;15.33;8.80;;;8.60;99.90;;;;;;5113663;28;20173;-72
2021/12/14 04:59:10;;;;;;;18.43;10.07;;;8.60;99.90;;;;;;5110565;28;20181;-70
2021/12/14 05:01:38;;;;;;;18.80;10.13;;;8.60;99.90;;;;;;5108747;28;20241;-71
2021/12/14 05:04:08;;;;;;;16.90;9.87;;;8.50;99.90;;;;;;5104809;28;20201;-71
2021/12/14 05:06:52;;;;;;;18.67;10.37;;;8.50;99.90;;;;;;5111964;28;20166;-71
2021/12/14 05:09:28;;;;;;;16.93;9.53;;;8.60;99.90;;;;;;5112921;28;20158;-71
2021/12/14 05:11:58;;;;;;;15.70;9.27;;;8.60;99.90;;;;;;5111003;28;20192;-72
2021/12/14 05:14:26;;;;;;;15.60;9.37;;;8.50;99.90;;;;;;5107297;28;20170;-71
2021/12/14 05:16:57;;;;;;;18.00;9.70;;;8.50;99.90;;;;;;5111763;28;20173;-71
2021/12/14 05:19:25;;;;;;;19.03;9.20;;;8.50;99.90;;;;;;5106665;28;20206;-71
2021/12/14 05:21:53;;;;;;;17.20;9.03;;;8.50;99.90;;;;;;5111494;28;20534;-71
2021/12/14 05:24:24;;;;;;;16.73;9.77;;;8.50;99.90;;;;;;5106137;28;20260;-72
2021/12/14 05:27:00;;;;;;;17.33;9.80;;;8.50;99.90;;;;;;5111546;28;20174;-72
2021/12/14 05:29:27;;;;;;;19.10;9.20;;;8.50;99.90;;;;;;5106982;28;20172;-71
2021/12/14 05:31:53;;;;;;;16.73;9.50;;;8.50;99.90;;;;;;5111331;28;20190;-71
2021/12/14 05:34:22;;;;;;;17.30;9.27;;;8.50;99.90;;;;;;5106229;28;20201;-72
2021/12/14 05:36:47;;;;;;;14.23;8.77;;;8.50;99.90;;;;;;5111187;28;20178;-72
2021/12/14 05:39:45;;;;;;;18.53;10.37;;;8.50;99.90;;;;;;5106376;28;20601;-72
2021/12/14 05:44:56;;;;;;;16.13;9.77;;;8.50;99.90;;;;;;5114687;28;20235;-73
2021/12/14 05:47:22;;;;;;;15.97;8.93;;;8.50;99.90;;;;;;5108194;28;20169;-73
2021/12/14 05:49:48;;;;;;;14.67;8.97;;;8.50;99.90;;;;;;5112649;28;20230;-72
2021/12/14 05:52:27;;;;;;;17.03;10.37;;;8.50;99.90;;;;;;5106242;28;20205;-72
2021/12/14 05:54:54;;;;;;;15.83;9.80;;;8.50;99.90;;;;;;5111878;28;20230;-72
2021/12/14 05:57:23;;;;;;;15.87;9.13;;;8.50;99.90;;;;;;5105721;28;20177;-72
2021/12/14 05:59:49;;;;;;;14.57;8.93;;;8.50;99.90;;;;;;5110756;28;20173;-72
2021/12/14 06:02:15;;;;;;;15.10;9.53;;;8.50;99.90;;;;;;5112043;28;20210;-72
2021/12/14 06:04:44;;;;;;;17.20;9.30;;;8.40;99.90;;;;;;5108815;28;20193;-72
2021/12/14 06:07:11;;;;;;;14.87;8.93;;;8.40;99.90;;;;;;5104372;28;20177;-75
2021/12/14 06:09:42;;;;;;;17.60;10.20;;;8.40;99.90;;;;;;5110833;28;20222;-73
2021/12/14 06:12:12;;;;;;;23.60;14.63;;;8.40;99.90;;;;;;5103587;28;20223;-72
2021/12/14 06:14:50;;;;;;;18.50;8.93;;;8.40;99.90;;;;;;5111035;28;20188;-72
2021/12/14 06:17:19;;;;;;;14.93;9.70;;;8.40;99.90;;;;;;5105043;28;20649;-72
2021/12/14 06:19:51;;;;;;;18.43;9.33;;;8.40;99.90;;;;;;5110941;28;20177;-74
2021/12/14 06:22:19;;;;;;;20.33;10.87;;;8.40;99.90;;;;;;5108039;28;20196;-72
2021/12/14 06:24:48;;;;;;;15.33;10.03;;;8.40;99.90;;;;;;5117566;28;20288;-74
2021/12/14 06:27:17;;;;;;;17.60;9.17;;;8.30;99.90;;;;;;5111343;28;20165;-72
2021/12/14 06:29:48;;;;;;;12.87;8.00;;;8.30;99.90;;;;;;5118840;27;20611;-72
2021/12/14 06:32:15;;;;;;;15.40;8.93;;;8.40;99.90;;;;;;5119446;28;20226;-72
2021/12/14 06:34:51;;;;;;;14.30;8.53;;;8.40;99.90;;;;;;5116681;28;20173;-72
2021/12/14 06:37:23;;;;;;;14.37;8.97;;;8.40;99.90;;;;;;5118893;28;20169;-72
2021/12/14 06:40:12;;;;;;;12.70;8.63;;;8.40;99.90;;;;;;5116084;28;20216;-72
2021/12/14 06:42:41;;;;;;;17.77;9.30;;;8.40;99.90;;;;;;5118586;28;20661;-72
2021/12/14 06:45:16;;;;;;;14.47;9.13;;;8.30;99.90;;;;;;5110271;28;20201;-72
2021/12/14 06:47:43;;;;;;;13.40;8.30;;;8.40;99.90;;;;;;5117133;28;20284;-72
2021/12/14 06:50:18;;;;;;;11.93;8.53;;;8.40;99.90;;;;;;5118201;28;20169;-72
2021/12/14 06:52:52;;;;;;;12.80;8.57;;;8.30;99.90;;;;;;5115378;28;20732;-72
2021/12/14 06:55:23;;;;;;;13.33;8.43;;;8.40;99.90;;;;;;5111757;28;20383;-72
2021/12/14 06:57:49;;;;;;;13.67;7.67;;;8.40;99.90;;;;;;5116991;28;20173;-72
2021/12/14 07:00:16;;;;;;;14.70;8.13;;;8.30;99.90;;;;;;5111168;28;20239;-72
2021/12/14 07:02:50;;;;;;;15.10;8.03;;;8.40;99.90;;;;;;5118235;27;20205;-72
2021/12/14 07:05:21;;;;;;;12.63;7.80;;;8.40;99.90;;;;;;5111129;28;20178;-74
2021/12/14 07:07:47;;;;;;;13.23;8.30;;;8.40;99.90;;;;;;5118196;27;20173;-74
2021/12/14 07:10:13;;;;;;;12.87;8.03;;;8.40;99.90;;;;;;5110932;28;20165;-72
2021/12/14 07:12:40;;;;;;;18.80;9.50;;;8.40;99.90;;;;;;5116928;28;20233;-72
2021/12/14 07:15:23;;;;;;;12.53;8.47;;;8.40;99.90;;;;;;5109887;28;20173;-71
2021/12/14 07:17:59;;;;;;;11.93;7.93;;;8.30;99.90;;;;;;5118124;28;20225;-72
2021/12/14 07:20:46;;;;;;;11.70;7.53;;;8.40;99.90;;;;;;5112327;28;20261;-72
2021/12/14 07:23:28;;;;;;;14.97;7.83;;;8.40;99.90;;;;;;5117220;28;20555;-71
2021/12/14 07:26:23;;;;;;;12.00;7.80;;;8.30;99.90;;;;;;5116787;28;20196;-72
2021/12/14 07:28:49;;;;;;;15.33;8.40;;;8.30;99.90;;;;;;5089702;28;20182;-71
2021/12/14 07:31:21;;;;;;;12.77;7.67;;;8.40;99.90;;;;;;5110558;28;20193;-72
2021/12/14 07:33:54;;;;;;;14.20;7.97;;;8.40;99.90;;;;;;5116583;27;20645;-71
2021/12/14 07:36:36;;;;;;;13.13;7.83;;;8.30;99.90;;;;;;5114949;28;20188;-72
2021/12/14 07:39:09;;;;;;;16.93;8.10;;;8.30;99.90;;;;;;5114905;28;20666;-72
2021/12/14 07:41:39;;;;;;;14.50;8.27;;;8.40;99.90;;;;;;5114697;28;20269;-72
2021/12/14 07:44:27;;;;;;;12.77;8.53;;;8.40;99.90;;;;;;5106395;28;20234;-72
2021/12/14 07:47:14;;;;;;;12.60;7.93;;;8.30;99.90;;;;;;5113123;28;20174;-73
2021/12/14 07:49:54;;;;;;;12.37;8.20;;;8.40;99.90;;;;;;5110787;28;20181;-72
2021/12/14 07:52:21;;;;;;;16.13;9.13;;;8.40;99.90;;;;;;5107975;28;20193;-72
2021/12/14 07:54:52;;;;;;;15.17;8.73;;;8.40;99.90;;;;;;5114650;28;20523;-72
2021/12/14 07:57:27;;;;;;;13.70;8.50;;;8.40;99.90;;;;;;5107674;28;20173;-72
2021/12/14 08:00:12;;;;;;;13.10;8.03;;;8.40;99.90;;;;;;5113176;28;20710;-71
2021/12/14 08:02:42;;;;;;;14.67;8.13;;;8.40;99.90;;;;;;5114193;28;20707;-73
2021/12/14 08:05:24;;;;;;;13.27;8.50;;;8.50;99.90;;;;;;5106163;28;20201;-74
2021/12/14 08:08:09;;;;;;;11.70;8.03;;;8.50;99.90;;;;;;5112756;28;20231;-73
2021/12/14 08:10:40;;;;;;;15.47;9.00;;;8.50;99.90;;;;;;5109948;28;20189;-71
2021/12/14 08:13:23;;;;;;;14.63;9.27;;;8.50;99.90;;;;;;5105577;28;20246;-72
2021/12/14 08:15:55;;;;;;;14.53;8.77;;;8.40;99.90;;;;;;5117426;28;20711;-73
2021/12/14 08:18:30;;;;;;;12.80;8.33;;;8.50;99.90;;;;;;5118148;28;20249;-72
2021/12/14 08:20:58;;;;;;;15.03;9.73;;;8.50;99.90;;;;;;5115465;28;20201;-72
2021/12/14 08:23:34;;;;;;;14.70;8.77;;;8.50;99.90;;;;;;5110974;28;20284;-72
2021/12/14 08:26:38;;;;;;;14.60;8.63;;;8.50;99.90;;;;;;5116743;28;20165;-72
2021/12/14 08:29:07;;;;;;;15.20;9.43;;;8.50;99.90;;;;;;5115839;28;20169;-72
2021/12/14 08:31:37;;;;;;;15.83;8.97;;;8.50;99.90;;;;;;5110714;28;20186;-72
2021/12/14 08:34:11;;;;;;;13.83;8.40;;;8.50;99.90;;;;;;5107215;28;20208;-74
2021/12/14 08:36:43;;;;;;;15.50;9.53;;;8.50;99.90;;;;;;5114670;28;20181;-72
2021/12/14 08:39:14;;;;;;;16.30;9.70;;;8.50;99.90;;;;;;5115722;28;20158;-72
2021/12/14 08:41:50;;;;;;;15.53;9.53;;;8.50;99.90;;;;;;5112856;28;20258;-74
2021/12/14 08:44:21;;;;;;;14.80;9.17;;;8.40;99.90;;;;;;5109835;28;20248;-73
2021/12/14 08:46:50;;;;;;;17.23;9.73;;;8.50;99.90;;;;;;5114813;28;20268;-72
2021/12/14 08:49:18;;;;;;;14.93;8.80;;;8.50;99.90;;;;;;5108674;28;20169;-73
2021/12/14 08:51:47;;;;;;;29.27;16.27;;;8.50;99.90;;;;;;5113359;28;20574;-72
2021/12/14 08:54:29;;;;;;;14.77;9.00;;;8.50;99.90;;;;;;5107365;28;20188;-72
2021/12/14 08:56:54;;;;;;;15.13;9.60;;;8.50;99.90;;;;;;5112216;28;20174;-73
2021/12/14 08:59:20;;;;;;;14.50;8.70;;;8.50;99.90;;;;;;5106807;28;20642;-72
2021/12/14 09:01:47;;;;;;;14.03;9.13;;;8.60;99.90;;;;;;5111810;28;20237;-76
2021/12/14 09:04:24;;;;;;;14.37;8.97;;;8.50;99.90;;;;;;5106128;28;20274;-73
2021/12/14 09:06:55;;;;;;;12.57;9.40;;;8.50;99.90;;;;;;5113191;28;20166;-72
2021/12/14 09:09:22;;;;;;;17.67;9.13;;;8.60;99.90;;;;;;5106493;28;20174;-75
2021/12/14 09:11:53;;;;;;;11.90;8.17;;;8.60;99.90;;;;;;5113141;28;20260;-72
2021/12/14 09:14:19;;;;;;;12.40;8.83;;;8.50;99.90;;;;;;5113159;28;20660;-71
2021/12/14 09:16:49;;;;;;;13.87;8.83;;;8.60;99.90;;;;;;5110450;28;20197;-72
2021/12/14 09:19:24;;;;;;;17.47;9.63;;;8.60;99.90;;;;;;5105730;28;20177;-71
2021/12/14 09:21:53;;;;;;;15.00;9.43;;;8.70;99.90;;;;;;5111414;28;20197;-72
2021/12/14 09:24:23;;;;;;;16.57;10.07;;;8.70;99.90;;;;;;5106119;28;20206;-72
2021/12/14 09:26:53;;;;;;;14.50;8.83;;;8.70;99.90;;;;;;5111439;28;20177;-73
2021/12/14 09:29:22;;;;;;;13.10;8.63;;;8.80;99.90;;;;;;5105943;28;20181;-72
2021/12/14 09:31:49;;;;;;;15.07;9.10;;;8.80;99.90;;;;;;5111380;28;20533;-71
2021/12/14 09:34:18;;;;;;;14.60;8.47;;;8.80;99.90;;;;;;5105554;28;20181;-72
2021/12/14 09:36:45;;;;;;;12.23;8.70;;;8.80;99.90;;;;;;5111309;28;20177;-72
2021/12/14 09:39:25;;;;;;;16.27;8.67;;;8.80;99.90;;;;;;5104670;28;20177;-73
2021/12/14 09:41:53;;;;;;;15.90;8.60;;;8.80;99.90;;;;;;5112379;28;20571;-71
2021/12/14 09:44:22;;;;;;;11.57;8.50;;;8.70;99.90;;;;;;5105897;28;20201;-72
2021/12/14 09:46:50;;;;;;;10.93;8.03;;;8.70;99.90;;;;;;5111110;28;20177;-72
2021/12/14 09:49:16;;;;;;;14.03;9.27;;;8.80;99.90;;;;;;5105311;28;20176;-72
2021/12/14 09:51:52;;;;;;;13.23;9.07;;;8.70;99.90;;;;;;5112284;28;20674;-71
2021/12/14 09:54:22;;;;;;;16.57;9.20;;;8.70;99.90;;;;;;5112463;28;20178;-71
2021/12/14 09:56:58;;;;;;;13.20;8.93;;;8.70;99.90;;;;;;5111515;28;20534;-75
2021/12/14 09:59:23;;;;;;;15.90;9.10;;;8.70;99.90;;;;;;5107699;28;20238;-70
2021/12/14 10:01:58;;;;;;;13.57;9.07;;;8.70;99.90;;;;;;5128673;22;20219;-76
2021/12/14 10:04:35;;;;;;;17.47;9.47;;;8.70;99.90;;;;;;5073108;28;20241;-77
2021/12/14 10:07:03;;;;;;;14.30;8.67;;;8.70;99.90;;;;;;5072954;28;20176;-77
2021/12/14 10:09:37;;;;;;;14.33;9.77;;;8.70;99.90;;;;;;5072982;28;20174;-77
2021/12/14 10:12:39;;;;;;;12.60;9.57;;;8.70;99.90;;;;;;5078702;28;20190;-77
2021/12/14 10:15:16;;;;;;;12.30;8.70;;;8.80;99.90;;;;;;5111493;28;20645;-77
2021/12/14 10:17:44;;;;;;;15.37;10.13;;;8.80;99.90;;;;;;5111378;28;20589;-76
2021/12/14 10:20:15;;;;;;;14.10;9.57;;;8.80;99.90;;;;;;5111380;28;20174;-76
2021/12/14 10:22:41;;;;;;;14.70;9.90;;;8.90;99.90;;;;;;5093111;28;20196;-76
2021/12/14 10:25:11;;;;;;;14.67;9.07;;;8.90;99.90;;;;;;5111852;28;20201;-77
2021/12/14 10:27:39;;;;;;;14.23;9.07;;;8.90;99.90;;;;;;5112067;28;20527;-76
2021/12/14 10:30:15;;;;;;;16.80;8.80;;;8.90;99.90;;;;;;5093152;28;20185;-76
2021/12/14 10:32:41;;;;;;;15.60;9.47;;;8.80;99.90;;;;;;5093498;28;20189;-76
2021/12/14 10:35:15;;;;;;;14.20;9.13;;;8.80;99.90;;;;;;5093248;28;20230;-76
2021/12/14 10:37:56;;;;;;;13.47;8.60;;;8.90;99.90;;;;;;5093083;28;20222;-75
2021/12/14 10:43:15;;;;;;;12.70;9.07;;;9.00;99.90;;;;;;5111944;28;20242;-76
2021/12/14 10:45:50;;;;;;;15.27;9.43;;;9.00;99.90;;;;;;5093462;28;20170;-77
2021/12/14 10:48:18;;;;;;;16.07;9.43;;;9.00;99.90;;;;;;5092984;28;20260;-76
2021/12/14 10:50:48;;;;;;;12.23;8.93;;;9.00;99.90;;;;;;5111509;28;20175;-77
2021/12/14 10:53:15;;;;;;;18.37;9.63;;;9.00;99.90;;;;;;5112058;28;20685;-76
2021/12/14 10:55:50;;;;;;;16.23;9.87;;;9.10;99.90;;;;;;5111534;28;20170;-78
2021/12/14 10:58:19;;;;;;;16.27;9.90;;;9.10;99.90;;;;;;5092928;28;20204;-76
2021/12/14 11:00:50;;;;;;;13.87;9.83;;;9.20;99.90;;;;;;5093006;28;20177;-76
2021/12/14 11:03:20;;;;;;;16.43;10.73;;;9.30;99.90;;;;;;5093041;28;20240;-77
2021/12/14 11:05:52;;;;;;;15.53;9.13;;;9.30;99.90;;;;;;5093193;28;20174;-78
2021/12/14 11:08:36;;;;;;;14.70;10.00;;;9.30;99.90;;;;;;5094535;28;20170;-78
2021/12/14 11:11:05;;;;;;;15.40;10.03;;;9.40;99.90;;;;;;5097023;28;20165;-76
2021/12/14 11:13:46;;;;;;;17.50;10.10;;;9.40;99.90;;;;;;5115712;28;20616;-77
2021/12/14 11:16:20;;;;;;;12.70;8.80;;;9.40;99.90;;;;;;5115025;28;20529;-78
2021/12/14 11:18:47;;;;;;;13.03;8.80;;;9.40;99.90;;;;;;5096818;28;20165;-77
2021/12/14 11:21:19;;;;;;;16.13;9.40;;;9.50;99.90;;;;;;5096572;28;20265;-77
2021/12/14 11:23:47;;;;;;;15.27;8.87;;;9.50;99.90;;;;;;5096391;28;20205;-77
2021/12/14 11:26:27;;;;;;;13.70;9.40;;;9.40;99.90;;;;;;5096410;28;20201;-77
2021/12/14 11:29:06;;;;;;;14.27;8.53;;;9.40;99.90;;;;;;5114921;28;20169;-77
2021/12/14 11:31:41;;;;;;;13.33;8.47;;;9.40;99.90;;;;;;5114884;28;20625;-77
2021/12/14 11:34:11;;;;;;;12.70;8.93;;;9.60;99.90;;;;;;5096581;28;20178;-77
2021/12/14 11:36:45;;;;;;;13.50;8.90;;;9.50;99.90;;;;;;5096399;28;20173;-77
2021/12/14 11:39:23;;;;;;;12.27;8.27;;;9.50;99.90;;;;;;5114710;28;20248;-77
2021/12/14 11:42:02;;;;;;;13.67;8.87;;;9.60;99.90;;;;;;5114652;28;20182;-77
2021/12/14 11:44:27;;;;;;;13.80;8.53;;;9.60;99.90;;;;;;5114952;28;20673;-77
2021/12/14 11:46:56;;;;;;;14.90;9.27;;;9.70;99.90;;;;;;5095950;28;20170;-77
2021/12/14 11:49:37;;;;;;;13.13;8.03;;;9.80;99.90;;;;;;5114347;28;20169;-77
2021/12/14 11:52:03;;;;;;;12.70;8.67;;;9.70;99.90;;;;;;5114454;28;20182;-78
2021/12/14 11:54:37;;;;;;;13.53;8.00;;;9.80;99.90;;;;;;5114496;28;20177;-76
2021/12/14 11:57:03;;;;;;;14.50;9.07;;;9.80;99.90;;;;;;5096643;28;20245;-76
2021/12/14 11:59:29;;;;;;;13.27;8.30;;;9.80;99.90;;;;;;5095884;28;20686;-77
2021/12/14 12:01:54;;;;;;;14.67;8.50;;;9.80;99.90;;;;;;5096003;28;20197;-77
2021/12/14 12:04:29;;;;;;;12.97;8.70;;;9.70;99.90;;;;;;5096150;28;20201;-77
2021/12/14 12:09:41;;;;;;;12.67;8.30;;;9.70;99.90;;;;;;5114212;28;20161;-77
2021/12/14 12:12:30;;;;;;;12.43;7.93;;;9.70;99.90;;;;;;5095381;28;20190;-77
2021/12/14 12:15:05;;;;;;;12.93;8.47;;;9.70;99.90;;;;;;5095742;28;20166;-78
2021/12/14 12:17:36;;;;;;;13.17;8.57;;;9.80;99.90;;;;;;5095208;28;20180;-77
2021/12/14 12:20:46;;;;;;;12.17;8.30;;;9.90;99.90;;;;;;5094681;28;20261;-77
2021/12/14 12:23:17;;;;;;;14.20;8.70;;;9.90;99.90;;;;;;5103639;28;20202;-77
2021/12/14 12:25:53;;;;;;;12.57;8.13;;;9.90;99.90;;;;;;5095284;28;20218;-77
2021/12/14 12:28:25;;;;;;;14.53;8.10;;;10.00;99.90;;;;;;5095163;28;20227;-76
2021/12/14 12:31:00;;;;;;;14.97;9.13;;;10.00;99.90;;;;;;5113732;28;20218;-77
2021/12/14 12:33:39;;;;;;;12.60;8.93;;;10.00;99.90;;;;;;5095325;28;20185;-78
2021/12/14 12:36:13;;;;;;;13.50;8.27;;;10.00;99.90;;;;;;5113383;28;20648;-78
2021/12/14 12:38:55;;;;;;;13.60;8.77;;;9.90;99.90;;;;;;5113669;28;20165;-78
2021/12/14 12:41:48;;;;;;;12.30;8.37;;;9.90;99.90;;;;;;5094954;28;20178;-78
2021/12/14 12:44:39;;;;;;;13.57;9.07;;;9.90;99.90;;;;;;5095146;28;20212;-78
2021/12/14 12:47:08;;;;;;;13.23;9.70;;;9.80;99.90;;;;;;5094886;28;20788;-78
2021/12/14 12:49:39;;;;;;;12.47;8.77;;;9.80;99.90;;;;;;5094795;28;20260;-78
2021/12/14 12:52:15;;;;;;;15.10;9.63;;;9.80;99.90;;;;;;5112876;28;20271;-78
2021/12/14 12:54:52;;;;;;;14.07;8.67;;;9.70;99.90;;;;;;5113438;28;20522;-78
2021/12/14 12:57:36;;;;;;;13.90;8.37;;;9.70;99.90;;;;;;5094876;28;20177;-78
2021/12/14 13:00:21;;;;;;;13.40;8.50;;;9.70;99.90;;;;;;5094462;28;20550;-78
2021/12/14 13:03:09;;;;;;;12.10;8.17;;;9.70;99.90;;;;;;5094251;28;20205;-78
2021/12/14 13:05:46;;;;;;;12.50;8.53;;;9.60;99.90;;;;;;5094715;28;20277;-78
2021/12/14 13:08:20;;;;;;;13.20;8.30;;;9.70;99.90;;;;;;5112878;28;20192;-78
2021/12/14 13:10:45;;;;;;;12.27;8.63;;;9.60;99.90;;;;;;5113368;28;20497;-78
2021/12/14 13:13:25;;;;;;;12.63;8.67;;;9.60;99.90;;;;;;5094373;28;20192;-78
2021/12/14 13:15:58;;;;;;;13.60;8.97;;;9.60;99.90;;;;;;5094426;28;20169;-78
2021/12/14 13:18:45;;;;;;;13.70;8.90;;;9.50;99.90;;;;;;5094587;28;20260;-78
2021/12/14 13:21:22;;;;;;;16.60;9.07;;;9.60;99.90;;;;;;5095528;28;20177;-76
2021/12/14 13:23:50;;;;;;;15.20;9.93;;;9.50;99.90;;;;;;5094615;28;20592;-77
2021/12/14 13:26:20;;;;;;;15.07;10.30;;;9.50;99.90;;;;;;5094285;28;20216;-77
2021/12/14 13:28:46;;;;;;;14.47;9.63;;;9.40;99.90;;;;;;5094290;28;20254;-77
2021/12/14 13:31:34;;;;;;;19.43;10.73;;;9.30;99.90;;;;;;5094260;28;20166;-76
2021/12/14 13:34:03;;;;;;;15.73;10.30;;;9.20;99.90;;;;;;5094843;28;20541;-76
2021/12/14 13:36:28;;;;;;;16.90;10.13;;;9.10;99.90;;;;;;5094000;28;20177;-76
2021/12/14 13:38:54;;;;;;;21.00;12.50;;;9.00;99.90;;;;;;5094102;28;20277;-76
2021/12/14 13:41:58;;;;;;;14.53;10.50;;;9.00;99.90;;;;;;5094209;28;20176;-77
2021/12/14 13:44:35;;;;;;;14.63;10.10;;;8.80;99.90;;;;;;5094173;28;20196;-76